WXM80 ListenWXM80 Stop

You find our weather info also at:

UK Metoffice

WeatherCloud

Weather Underground

Northeastern Weather Network

AWEKAS

Citizen Weather Observer Program (CWOP)

HAMweather, WeatherForYou, PWS Weather


Weather Underground History page Text

Daily Summary for March 21, 2017 Units:  Both    English   Metric
« Previous Day
Next Day »
Daily Weekly Monthly Yearly Custom
  High: Low: Average:
Temperature: 57.5 °F /  14.2 °C 40.2 °F /  4.6 °C 47.7 °F /  8.7 °C
Dew Point: 36.3 °F /  2.4 °C 26.2 °F /  -3.2 °C 31 °F /  -0.6 °C
Humidity: 65 % 39 % 53 %
Wind Speed: 6.6 mph /  10.6 km/h - 1.9 mph /  3.1 km/h
Wind Gust: 12.0 mph /  19.3 km/h - -
Wind:- - WSW
Pressure: 29.94 in /  1013.8 hPa 29.77 in /  1008 hPa -
Precipitation: 0.00 in /  0 mm    
Historical Graphs
 
 
Tabular Data for March 21, 2017
Time Temperature Dew Point Pressure Wind Wind Speed Wind Gust Humidity Rainfall Rate (Hourly)
00:03 42.7 °F /  5.9 °C 26.7 °F /  -2.9 °C 29.94 in /  1013.8 hPa WSW 0.6 mph /  1 km/h 2.3 mph /  3.7 km/h 53 % 0.00 in /  0 mm
00:08 42.8 °F /  6 °C 26.8 °F /  -2.9 °C 29.94 in /  1013.8 hPa West 2.1 mph /  3.4 km/h 3.5 mph /  5.6 km/h 53 % 0.00 in /  0 mm
00:13 42.9 °F /  6.1 °C 26.5 °F /  -3.1 °C 29.93 in /  1013.4 hPa WNW 2.0 mph /  3.2 km/h 3.5 mph /  5.6 km/h 52 % 0.00 in /  0 mm
00:18 43.1 °F /  6.2 °C 26.2 °F /  -3.2 °C 29.93 in /  1013.4 hPa WSW 2.7 mph /  4.3 km/h 5.0 mph /  8 km/h 51 % 0.00 in /  0 mm
00:24 43.3 °F /  6.3 °C 26.8 °F /  -2.9 °C 29.93 in /  1013.4 hPa WSW 1.6 mph /  2.6 km/h 3.5 mph /  5.6 km/h 52 % 0.00 in /  0 mm
00:29 43.4 °F /  6.3 °C 26.5 °F /  -3.1 °C 29.93 in /  1013.4 hPa Calm   2.3 mph /  3.7 km/h 51 % 0.00 in /  0 mm
00:34 43.4 °F /  6.3 °C 26.9 °F /  -2.8 °C 29.93 in /  1013.4 hPa WNW 0.5 mph /  0.8 km/h 1.2 mph /  1.9 km/h 52 % 0.00 in /  0 mm
00:39 43.5 °F /  6.4 °C 27.5 °F /  -2.5 °C 29.93 in /  1013.4 hPa WNW 0.4 mph /  0.6 km/h 1.2 mph /  1.9 km/h 53 % 0.00 in /  0 mm
00:44 43.6 °F /  6.4 °C 27.6 °F /  -2.4 °C 29.94 in /  1013.8 hPa Calm   2.3 mph /  3.7 km/h 53 % 0.00 in /  0 mm
00:49 43.6 °F /  6.4 °C 27.6 °F /  -2.4 °C 29.94 in /  1013.8 hPa WNW 0.5 mph /  0.8 km/h 2.3 mph /  3.7 km/h 53 % 0.00 in /  0 mm
00:54 43.6 °F /  6.4 °C 27.6 °F /  -2.4 °C 29.93 in /  1013.4 hPa WNW 0.4 mph /  0.6 km/h 2.3 mph /  3.7 km/h 53 % 0.00 in /  0 mm
00:59 43.6 °F /  6.4 °C 27.6 °F /  -2.4 °C 29.93 in /  1013.4 hPa WSW 2.2 mph /  3.5 km/h 3.5 mph /  5.6 km/h 53 % 0.00 in /  0 mm
01:04 43.6 °F /  6.4 °C 27.6 °F /  -2.4 °C 29.93 in /  1013.4 hPa WSW 0.2 mph /  0.3 km/h 2.3 mph /  3.7 km/h 53 % 0.00 in /  0 mm
01:05 43.6 °F /  6.4 °C 27.6 °F /  -2.4 °C 29.93 in /  1013.4 hPa WSW 2.1 mph /  3.4 km/h 3.5 mph /  5.6 km/h 53 % 0.00 in /  0 mm
01:10 43.6 °F /  6.4 °C 27.6 °F /  -2.4 °C 29.93 in /  1013.4 hPa WSW 0.3 mph /  0.5 km/h 1.2 mph /  1.9 km/h 53 % 0.00 in /  0 mm
01:15 43.5 °F /  6.4 °C 27.9 °F /  -2.3 °C 29.93 in /  1013.4 hPa Calm     54 % 0.00 in /  0 mm
01:20 43.5 °F /  6.4 °C 27.9 °F /  -2.3 °C 29.93 in /  1013.4 hPa WSW 0.5 mph /  0.8 km/h 2.0 mph /  3.2 km/h 54 % 0.00 in /  0 mm
01:25 43.4 °F /  6.3 °C 28.3 °F /  -2.1 °C 29.93 in /  1013.4 hPa WSW 1.8 mph /  2.9 km/h 3.5 mph /  5.6 km/h 55 % 0.00 in /  0 mm
01:30 43.4 °F /  6.3 °C 28.3 °F /  -2.1 °C 29.93 in /  1013.4 hPa SW 1.5 mph /  2.4 km/h 4.0 mph /  6.4 km/h 55 % 0.00 in /  0 mm
01:35 43.3 °F /  6.3 °C 27.8 °F /  -2.3 °C 29.93 in /  1013.4 hPa WSW 2.2 mph /  3.5 km/h 3.5 mph /  5.6 km/h 54 % 0.00 in /  0 mm
01:40 43.3 °F /  6.3 °C 27.8 °F /  -2.3 °C 29.92 in /  1013.1 hPa WSW 2.2 mph /  3.5 km/h 3.5 mph /  5.6 km/h 54 % 0.00 in /  0 mm
01:45 43.3 °F /  6.3 °C 27.8 °F /  -2.3 °C 29.92 in /  1013.1 hPa WSW 1.8 mph /  2.9 km/h 5.0 mph /  8 km/h 54 % 0.00 in /  0 mm
01:50 43.3 °F /  6.3 °C 28.2 °F /  -2.1 °C 29.92 in /  1013.1 hPa WSW 3.2 mph /  5.1 km/h 4.6 mph /  7.4 km/h 55 % 0.00 in /  0 mm
01:51 43.3 °F /  6.3 °C 28.2 °F /  -2.1 °C 29.92 in /  1013.1 hPa WSW 2.3 mph /  3.7 km/h 5.8 mph /  9.3 km/h 55 % 0.00 in /  0 mm
01:56 43.3 °F /  6.3 °C 28.2 °F /  -2.1 °C 29.92 in /  1013.1 hPa WSW 2.6 mph /  4.2 km/h 4.6 mph /  7.4 km/h 55 % 0.00 in /  0 mm
02:01 43.3 °F /  6.3 °C 28.2 °F /  -2.1 °C 29.92 in /  1013.1 hPa WSW 1.2 mph /  1.9 km/h 2.3 mph /  3.7 km/h 55 % 0.00 in /  0 mm
02:06 43.3 °F /  6.3 °C 28.2 °F /  -2.1 °C 29.92 in /  1013.1 hPa WSW 2.1 mph /  3.4 km/h 3.5 mph /  5.6 km/h 55 % 0.00 in /  0 mm
02:11 43.3 °F /  6.3 °C 28.2 °F /  -2.1 °C 29.92 in /  1013.1 hPa WSW 2.2 mph /  3.5 km/h 3.5 mph /  5.6 km/h 55 % 0.00 in /  0 mm
02:16 43.3 °F /  6.3 °C 27.8 °F /  -2.3 °C 29.92 in /  1013.1 hPa WSW 1.4 mph /  2.3 km/h 3.5 mph /  5.6 km/h 54 % 0.00 in /  0 mm
02:21 43.3 °F /  6.3 °C 27.8 °F /  -2.3 °C 29.92 in /  1013.1 hPa WSW 1.8 mph /  2.9 km/h 4.0 mph /  6.4 km/h 54 % 0.00 in /  0 mm
02:26 43.3 °F /  6.3 °C 27.8 °F /  -2.3 °C 29.91 in /  1012.8 hPa WSW 1.1 mph /  1.8 km/h 3.5 mph /  5.6 km/h 54 % 0.00 in /  0 mm
02:31 43.3 °F /  6.3 °C 27.8 °F /  -2.3 °C 29.91 in /  1012.8 hPa West 2.1 mph /  3.4 km/h 3.5 mph /  5.6 km/h 54 % 0.00 in /  0 mm
02:36 43.3 °F /  6.3 °C 27.8 °F /  -2.3 °C 29.91 in /  1012.8 hPa West 1.0 mph /  1.6 km/h 3.5 mph /  5.6 km/h 54 % 0.00 in /  0 mm
02:41 43.3 °F /  6.3 °C 27.8 °F /  -2.3 °C 29.91 in /  1012.8 hPa Calm   1.2 mph /  1.9 km/h 54 % 0.00 in /  0 mm
02:46 43.3 °F /  6.3 °C 28.2 °F /  -2.1 °C 29.91 in /  1012.8 hPa West 0.3 mph /  0.5 km/h 1.2 mph /  1.9 km/h 55 % 0.00 in /  0 mm
02:51 43.2 °F /  6.2 °C 28.1 °F /  -2.2 °C 29.90 in /  1012.4 hPa Calm   1.2 mph /  1.9 km/h 55 % 0.00 in /  0 mm
02:56 43.2 °F /  6.2 °C 28.1 °F /  -2.2 °C 29.90 in /  1012.4 hPa West 0.1 mph /  0.2 km/h 1.2 mph /  1.9 km/h 55 % 0.00 in /  0 mm
03:02 43.1 °F /  6.2 °C 28.5 °F /  -1.9 °C 29.90 in /  1012.4 hPa West 0.1 mph /  0.2 km/h   56 % 0.00 in /  0 mm
03:07 43.0 °F /  6.1 °C 28.4 °F /  -2 °C 29.90 in /  1012.4 hPa Calm   1.2 mph /  1.9 km/h 56 % 0.00 in /  0 mm
03:12 43.0 °F /  6.1 °C 28.4 °F /  -2 °C 29.89 in /  1012.1 hPa West 0.3 mph /  0.5 km/h 1.2 mph /  1.9 km/h 56 % 0.00 in /  0 mm
03:17 42.9 °F /  6.1 °C 28.7 °F /  -1.8 °C 29.90 in /  1012.4 hPa Calm   1.2 mph /  1.9 km/h 57 % 0.00 in /  0 mm
03:22 42.8 °F /  6 °C 28.2 °F /  -2.1 °C 29.90 in /  1012.4 hPa West 0.1 mph /  0.2 km/h 1.2 mph /  1.9 km/h 56 % 0.00 in /  0 mm
03:27 42.7 °F /  5.9 °C 28.5 °F /  -1.9 °C 29.89 in /  1012.1 hPa Calm     57 % 0.00 in /  0 mm
03:32 42.5 °F /  5.8 °C 28.3 °F /  -2.1 °C 29.89 in /  1012.1 hPa Calm     57 % 0.00 in /  0 mm
03:37 42.3 °F /  5.7 °C 28.6 °F /  -1.9 °C 29.89 in /  1012.1 hPa West 0.1 mph /  0.2 km/h 1.2 mph /  1.9 km/h 58 % 0.00 in /  0 mm
03:42 42.3 °F /  5.7 °C 28.6 °F /  -1.9 °C 29.88 in /  1011.7 hPa West 0.2 mph /  0.3 km/h 2.3 mph /  3.7 km/h 58 % 0.00 in /  0 mm
03:47 42.1 °F /  5.6 °C 28.4 °F /  -2 °C 29.89 in /  1012.1 hPa West 2.2 mph /  3.5 km/h 3.5 mph /  5.6 km/h 58 % 0.00 in /  0 mm
03:52 41.9 °F /  5.5 °C 28.2 °F /  -2.1 °C 29.89 in /  1012.1 hPa WSW 1.8 mph /  2.9 km/h 3.5 mph /  5.6 km/h 58 % 0.00 in /  0 mm
03:57 41.7 °F /  5.4 °C 28.0 °F /  -2.2 °C 29.88 in /  1011.7 hPa SW 2.4 mph /  3.9 km/h 4.6 mph /  7.4 km/h 58 % 0.00 in /  0 mm
04:02 41.5 °F /  5.3 °C 27.4 °F /  -2.6 °C 29.88 in /  1011.7 hPa SW 1.7 mph /  2.7 km/h 2.3 mph /  3.7 km/h 57 % 0.00 in /  0 mm
04:08 41.4 °F /  5.2 °C 27.3 °F /  -2.6 °C 29.88 in /  1011.7 hPa SW 1.1 mph /  1.8 km/h 3.5 mph /  5.6 km/h 57 % 0.00 in /  0 mm
04:12 41.2 °F /  5.1 °C 27.5 °F /  -2.5 °C 29.88 in /  1011.7 hPa SW 0.5 mph /  0.8 km/h 2.3 mph /  3.7 km/h 58 % 0.00 in /  0 mm
04:18 41.1 °F /  5.1 °C 27.4 °F /  -2.6 °C 29.88 in /  1011.7 hPa WSW 1.4 mph /  2.3 km/h 3.0 mph /  4.8 km/h 58 % 0.00 in /  0 mm
04:23 40.9 °F /  4.9 °C 27.2 °F /  -2.7 °C 29.88 in /  1011.7 hPa WSW 1.0 mph /  1.6 km/h 4.0 mph /  6.4 km/h 58 % 0.00 in /  0 mm
04:28 40.7 °F /  4.8 °C 27.5 °F /  -2.5 °C 29.88 in /  1011.7 hPa WSW 2.0 mph /  3.2 km/h 3.0 mph /  4.8 km/h 59 % 0.00 in /  0 mm
04:33 40.5 °F /  4.7 °C 27.3 °F /  -2.6 °C 29.88 in /  1011.7 hPa WSW 2.0 mph /  3.2 km/h 4.0 mph /  6.4 km/h 59 % 0.00 in /  0 mm
04:38 40.4 °F /  4.7 °C 27.2 °F /  -2.7 °C 29.89 in /  1012.1 hPa WSW 1.0 mph /  1.6 km/h 6.0 mph /  9.7 km/h 59 % 0.00 in /  0 mm
04:43 40.3 °F /  4.6 °C 27.5 °F /  -2.5 °C 29.89 in /  1012.1 hPa SW 1.9 mph /  3.1 km/h 4.6 mph /  7.4 km/h 60 % 0.00 in /  0 mm
04:48 40.2 °F /  4.6 °C 27.4 °F /  -2.6 °C 29.89 in /  1012.1 hPa SW 3.2 mph /  5.1 km/h 3.5 mph /  5.6 km/h 60 % 0.00 in /  0 mm
04:53 40.2 °F /  4.6 °C 27.4 °F /  -2.6 °C 29.89 in /  1012.1 hPa WSW 2.0 mph /  3.2 km/h 5.0 mph /  8 km/h 60 % 0.00 in /  0 mm
04:58 40.2 °F /  4.6 °C 27.4 °F /  -2.6 °C 29.90 in /  1012.4 hPa SW 2.6 mph /  4.2 km/h 3.5 mph /  5.6 km/h 60 % 0.00 in /  0 mm
05:03 40.2 °F /  4.6 °C 27.8 °F /  -2.3 °C 29.90 in /  1012.4 hPa WSW 2.2 mph /  3.5 km/h 3.5 mph /  5.6 km/h 61 % 0.00 in /  0 mm
05:08 40.2 °F /  4.6 °C 27.8 °F /  -2.3 °C 29.90 in /  1012.4 hPa WSW 1.9 mph /  3.1 km/h 4.6 mph /  7.4 km/h 61 % 0.00 in /  0 mm
05:13 40.2 °F /  4.6 °C 27.8 °F /  -2.3 °C 29.90 in /  1012.4 hPa WSW 0.9 mph /  1.4 km/h 3.5 mph /  5.6 km/h 61 % 0.00 in /  0 mm
05:18 40.3 °F /  4.6 °C 27.9 °F /  -2.3 °C 29.89 in /  1012.1 hPa SSW 1.0 mph /  1.6 km/h 4.6 mph /  7.4 km/h 61 % 0.00 in /  0 mm
05:23 40.4 °F /  4.7 °C 28.0 °F /  -2.2 °C 29.89 in /  1012.1 hPa WSW 2.3 mph /  3.7 km/h 4.6 mph /  7.4 km/h 61 % 0.00 in /  0 mm
05:28 40.4 °F /  4.7 °C 28.0 °F /  -2.2 °C 29.89 in /  1012.1 hPa WSW 1.5 mph /  2.4 km/h 3.5 mph /  5.6 km/h 61 % 0.00 in /  0 mm
05:33 40.5 °F /  4.7 °C 28.1 °F /  -2.2 °C 29.89 in /  1012.1 hPa SW 2.9 mph /  4.7 km/h 5.0 mph /  8 km/h 61 % 0.00 in /  0 mm
05:38 40.5 °F /  4.7 °C 27.7 °F /  -2.4 °C 29.89 in /  1012.1 hPa WSW 2.4 mph /  3.9 km/h 3.5 mph /  5.6 km/h 60 % 0.00 in /  0 mm
05:43 40.5 °F /  4.7 °C 27.7 °F /  -2.4 °C 29.90 in /  1012.4 hPa South 0.8 mph /  1.3 km/h 3.5 mph /  5.6 km/h 60 % 0.00 in /  0 mm
05:48 40.6 °F /  4.8 °C 27.8 °F /  -2.3 °C 29.89 in /  1012.1 hPa West 0.8 mph /  1.3 km/h 2.3 mph /  3.7 km/h 60 % 0.00 in /  0 mm
05:53 40.7 °F /  4.8 °C 27.9 °F /  -2.3 °C 29.89 in /  1012.1 hPa West 0.1 mph /  0.2 km/h   60 % 0.00 in /  0 mm
05:58 40.7 °F /  4.8 °C 27.9 °F /  -2.3 °C 29.89 in /  1012.1 hPa West 0.9 mph /  1.4 km/h 1.2 mph /  1.9 km/h 60 % 0.00 in /  0 mm
06:03 40.7 °F /  4.8 °C 28.3 °F /  -2.1 °C 29.89 in /  1012.1 hPa WSW 0.1 mph /  0.2 km/h 2.3 mph /  3.7 km/h 61 % 0.00 in /  0 mm
06:08 40.8 °F /  4.9 °C 28.4 °F /  -2 °C 29.88 in /  1011.7 hPa WSW 0.3 mph /  0.5 km/h 1.2 mph /  1.9 km/h 61 % 0.00 in /  0 mm
06:14 40.8 °F /  4.9 °C 28.4 °F /  -2 °C 29.88 in /  1011.7 hPa Calm     61 % 0.00 in /  0 mm
06:19 40.8 °F /  4.9 °C 28.8 °F /  -1.8 °C 29.88 in /  1011.7 hPa Calm   1.2 mph /  1.9 km/h 62 % 0.00 in /  0 mm
06:24 40.9 °F /  4.9 °C 28.9 °F /  -1.7 °C 29.88 in /  1011.7 hPa Calm     62 % 0.00 in /  0 mm
06:29 40.9 °F /  4.9 °C 28.9 °F /  -1.7 °C 29.88 in /  1011.7 hPa Calm     62 % 0.00 in /  0 mm
06:34 40.9 °F /  4.9 °C 28.9 °F /  -1.7 °C 29.88 in /  1011.7 hPa Calm     62 % 0.00 in /  0 mm
06:39 40.9 °F /  4.9 °C 28.9 °F /  -1.7 °C 29.89 in /  1012.1 hPa WNW 2.5 mph /  4 km/h 4.0 mph /  6.4 km/h 62 % 0.00 in /  0 mm
06:44 40.9 °F /  4.9 °C 28.9 °F /  -1.7 °C 29.89 in /  1012.1 hPa WNW 1.9 mph /  3.1 km/h 2.3 mph /  3.7 km/h 62 % 0.00 in /  0 mm
06:49 40.9 °F /  4.9 °C 28.9 °F /  -1.7 °C 29.89 in /  1012.1 hPa West 1.4 mph /  2.3 km/h 2.3 mph /  3.7 km/h 62 % 0.00 in /  0 mm
06:54 40.9 °F /  4.9 °C 28.9 °F /  -1.7 °C 29.89 in /  1012.1 hPa West 0.3 mph /  0.5 km/h 2.3 mph /  3.7 km/h 62 % 0.00 in /  0 mm
06:59 41.0 °F /  5 °C 29.0 °F /  -1.7 °C 29.89 in /  1012.1 hPa West 0.4 mph /  0.6 km/h 2.3 mph /  3.7 km/h 62 % 0.00 in /  0 mm
07:04 41.0 °F /  5 °C 29.0 °F /  -1.7 °C 29.89 in /  1012.1 hPa West 1.4 mph /  2.3 km/h 3.5 mph /  5.6 km/h 62 % 0.00 in /  0 mm
07:09 41.0 °F /  5 °C 29.0 °F /  -1.7 °C 29.88 in /  1011.7 hPa Calm   1.2 mph /  1.9 km/h 62 % 0.00 in /  0 mm
07:15 41.1 °F /  5.1 °C 29.1 °F /  -1.6 °C 29.88 in /  1011.7 hPa Calm   1.2 mph /  1.9 km/h 62 % 0.00 in /  0 mm
07:20 41.1 °F /  5.1 °C 29.5 °F /  -1.4 °C 29.88 in /  1011.7 hPa West 0.3 mph /  0.5 km/h 1.2 mph /  1.9 km/h 63 % 0.00 in /  0 mm
07:22 41.1 °F /  5.1 °C 29.5 °F /  -1.4 °C 29.88 in /  1011.7 hPa West 0.2 mph /  0.3 km/h 1.2 mph /  1.9 km/h 63 % 0.00 in /  0 mm
07:27 41.2 °F /  5.1 °C 29.5 °F /  -1.4 °C 29.88 in /  1011.7 hPa West 0.4 mph /  0.6 km/h 1.2 mph /  1.9 km/h 63 % 0.00 in /  0 mm
07:32 41.1 °F /  5.1 °C 29.5 °F /  -1.4 °C 29.88 in /  1011.7 hPa Calm   2.3 mph /  3.7 km/h 63 % 0.00 in /  0 mm
07:37 41.2 °F /  5.1 °C 29.5 °F /  -1.4 °C 29.88 in /  1011.7 hPa Calm   1.2 mph /  1.9 km/h 63 % 0.00 in /  0 mm
07:42 41.3 °F /  5.2 °C 29.6 °F /  -1.3 °C 29.88 in /  1011.7 hPa Calm   1.0 mph /  1.6 km/h 63 % 0.00 in /  0 mm
07:47 41.3 °F /  5.2 °C 30.0 °F /  -1.1 °C 29.88 in /  1011.7 hPa Calm     64 % 0.00 in /  0 mm
07:52 41.4 °F /  5.2 °C 30.1 °F /  -1.1 °C 29.89 in /  1012.1 hPa Calm   1.2 mph /  1.9 km/h 64 % 0.00 in /  0 mm
07:57 41.4 °F /  5.2 °C 29.7 °F /  -1.3 °C 29.89 in /  1012.1 hPa Calm     63 % 0.00 in /  0 mm
08:02 41.5 °F /  5.3 °C 29.8 °F /  -1.2 °C 29.89 in /  1012.1 hPa WSW 0.5 mph /  0.8 km/h 2.0 mph /  3.2 km/h 63 % 0.00 in /  0 mm
08:07 41.6 °F /  5.3 °C 29.5 °F /  -1.4 °C 29.89 in /  1012.1 hPa WSW 1.5 mph /  2.4 km/h 3.5 mph /  5.6 km/h 62 % 0.00 in /  0 mm
08:17 41.8 °F /  5.4 °C 28.1 °F /  -2.2 °C 29.89 in /  1012.1 hPa WSW 0.6 mph /  1 km/h 2.3 mph /  3.7 km/h 58 % 0.00 in /  0 mm
08:27 42.1 °F /  5.6 °C 28.4 °F /  -2 °C 29.89 in /  1012.1 hPa WSW 1.7 mph /  2.7 km/h 3.5 mph /  5.6 km/h 58 % 0.00 in /  0 mm
08:32 42.2 °F /  5.7 °C 28.5 °F /  -1.9 °C 29.89 in /  1012.1 hPa Calm     58 % 0.00 in /  0 mm
08:37 42.4 °F /  5.8 °C 28.7 °F /  -1.8 °C 29.90 in /  1012.4 hPa WSW 0.1 mph /  0.2 km/h   58 % 0.00 in /  0 mm
08:42 42.5 °F /  5.8 °C 28.8 °F /  -1.8 °C 29.89 in /  1012.1 hPa WSW 0.1 mph /  0.2 km/h 1.2 mph /  1.9 km/h 58 % 0.00 in /  0 mm
08:47 42.7 °F /  5.9 °C 28.5 °F /  -1.9 °C 29.90 in /  1012.4 hPa WSW 0.1 mph /  0.2 km/h 3.5 mph /  5.6 km/h 57 % 0.00 in /  0 mm
08:53 42.8 °F /  6 °C 27.7 °F /  -2.4 °C 29.90 in /  1012.4 hPa WSW 0.4 mph /  0.6 km/h 2.3 mph /  3.7 km/h 55 % 0.00 in /  0 mm
08:58 43.1 °F /  6.2 °C 27.6 °F /  -2.4 °C 29.89 in /  1012.1 hPa WSW 0.1 mph /  0.2 km/h   54 % 0.00 in /  0 mm
09:03 43.2 °F /  6.2 °C 28.1 °F /  -2.2 °C 29.90 in /  1012.4 hPa Calm   2.0 mph /  3.2 km/h 55 % 0.00 in /  0 mm
09:08 43.3 °F /  6.3 °C 28.2 °F /  -2.1 °C 29.90 in /  1012.4 hPa Calm   4.0 mph /  6.4 km/h 55 % 0.00 in /  0 mm
09:13 43.5 °F /  6.4 °C 29.3 °F /  -1.5 °C 29.90 in /  1012.4 hPa WSW 1.4 mph /  2.3 km/h 4.0 mph /  6.4 km/h 57 % 0.00 in /  0 mm
09:18 43.6 °F /  6.4 °C 28.9 °F /  -1.7 °C 29.90 in /  1012.4 hPa WSW 4.9 mph /  7.9 km/h 5.0 mph /  8 km/h 56 % 0.00 in /  0 mm
09:23 43.7 °F /  6.5 °C 29.0 °F /  -1.7 °C 29.90 in /  1012.4 hPa WSW 1.0 mph /  1.6 km/h 6.0 mph /  9.7 km/h 56 % 0.00 in /  0 mm
09:28 43.7 °F /  6.5 °C 29.0 °F /  -1.7 °C 29.90 in /  1012.4 hPa WSW 2.0 mph /  3.2 km/h 6.0 mph /  9.7 km/h 56 % 0.00 in /  0 mm
09:33 43.8 °F /  6.6 °C 29.5 °F /  -1.4 °C 29.90 in /  1012.4 hPa WSW 3.0 mph /  4.8 km/h 6.0 mph /  9.7 km/h 57 % 0.00 in /  0 mm
09:38 43.9 °F /  6.6 °C 29.6 °F /  -1.3 °C 29.90 in /  1012.4 hPa WSW 3.0 mph /  4.8 km/h 7.0 mph /  11.3 km/h 57 % 0.00 in /  0 mm
09:43 43.9 °F /  6.6 °C 29.6 °F /  -1.3 °C 29.90 in /  1012.4 hPa WSW 1.0 mph /  1.6 km/h 5.0 mph /  8 km/h 57 % 0.00 in /  0 mm
09:48 44.1 °F /  6.7 °C 29.8 °F /  -1.2 °C 29.90 in /  1012.4 hPa WSW 2.0 mph /  3.2 km/h 6.0 mph /  9.7 km/h 57 % 0.00 in /  0 mm
09:53 44.2 °F /  6.8 °C 29.9 °F /  -1.2 °C 29.90 in /  1012.4 hPa WSW 2.0 mph /  3.2 km/h 5.0 mph /  8 km/h 57 % 0.00 in /  0 mm
09:58 44.5 °F /  6.9 °C 29.8 °F /  -1.2 °C 29.89 in /  1012.1 hPa WSW 2.3 mph /  3.7 km/h 4.0 mph /  6.4 km/h 56 % 0.00 in /  0 mm
10:03 44.7 °F /  7.1 °C 29.5 °F /  -1.4 °C 29.89 in /  1012.1 hPa WSW 3.0 mph /  4.8 km/h 6.0 mph /  9.7 km/h 55 % 0.00 in /  0 mm
10:08 44.9 °F /  7.2 °C 28.8 °F /  -1.8 °C 29.89 in /  1012.1 hPa WSW 2.0 mph /  3.2 km/h 6.0 mph /  9.7 km/h 53 % 0.00 in /  0 mm
10:13 45.0 °F /  7.2 °C 28.9 °F /  -1.7 °C 29.89 in /  1012.1 hPa WSW 2.2 mph /  3.5 km/h 4.6 mph /  7.4 km/h 53 % 0.00 in /  0 mm
10:18 45.1 °F /  7.3 °C 29.0 °F /  -1.7 °C 29.89 in /  1012.1 hPa WSW 3.0 mph /  4.8 km/h 6.0 mph /  9.7 km/h 53 % 0.00 in /  0 mm
10:23 45.4 °F /  7.4 °C 29.2 °F /  -1.6 °C 29.89 in /  1012.1 hPa WSW 3.0 mph /  4.8 km/h 6.0 mph /  9.7 km/h 53 % 0.00 in /  0 mm
10:28 45.8 °F /  7.7 °C 29.6 °F /  -1.3 °C 29.89 in /  1012.1 hPa WSW 2.0 mph /  3.2 km/h 4.0 mph /  6.4 km/h 53 % 0.00 in /  0 mm
10:33 46.1 °F /  7.8 °C 29.0 °F /  -1.7 °C 29.89 in /  1012.1 hPa WNW 2.5 mph /  4 km/h 4.6 mph /  7.4 km/h 51 % 0.00 in /  0 mm
10:34 46.2 °F /  7.9 °C 29.1 °F /  -1.6 °C 29.89 in /  1012.1 hPa WSW 3.6 mph /  5.8 km/h 4.0 mph /  6.4 km/h 51 % 0.00 in /  0 mm
10:39 46.5 °F /  8.1 °C 28.8 °F /  -1.8 °C 29.89 in /  1012.1 hPa WNW 1.2 mph /  1.9 km/h 3.5 mph /  5.6 km/h 50 % 0.00 in /  0 mm
10:44 46.6 °F /  8.1 °C 28.4 °F /  -2 °C 29.90 in /  1012.4 hPa WNW 3.2 mph /  5.1 km/h 5.0 mph /  8 km/h 49 % 0.00 in /  0 mm
10:49 46.7 °F /  8.2 °C 28.0 °F /  -2.2 °C 29.89 in /  1012.1 hPa West 2.0 mph /  3.2 km/h 3.5 mph /  5.6 km/h 48 % 0.00 in /  0 mm
10:54 46.9 °F /  8.3 °C 27.2 °F /  -2.7 °C 29.89 in /  1012.1 hPa WNW 3.9 mph /  6.3 km/h 5.0 mph /  8 km/h 46 % 0.00 in /  0 mm
11:00 46.9 °F /  8.3 °C 27.7 °F /  -2.4 °C 29.89 in /  1012.1 hPa West 3.4 mph /  5.5 km/h 4.6 mph /  7.4 km/h 47 % 0.00 in /  0 mm
11:05 46.9 °F /  8.3 °C 28.2 °F /  -2.1 °C 29.89 in /  1012.1 hPa WNW 2.3 mph /  3.7 km/h 3.5 mph /  5.6 km/h 48 % 0.00 in /  0 mm
11:10 47.1 °F /  8.4 °C 28.4 °F /  -2 °C 29.89 in /  1012.1 hPa WNW 0.6 mph /  1 km/h 3.5 mph /  5.6 km/h 48 % 0.00 in /  0 mm
11:15 47.3 °F /  8.5 °C 29.6 °F /  -1.3 °C 29.89 in /  1012.1 hPa NNW 3.5 mph /  5.6 km/h 4.6 mph /  7.4 km/h 50 % 0.00 in /  0 mm
11:20 47.5 °F /  8.6 °C 30.7 °F /  -0.7 °C 29.89 in /  1012.1 hPa WNW 3.4 mph /  5.5 km/h 6.9 mph /  11.1 km/h 52 % 0.00 in /  0 mm
11:25 47.6 °F /  8.7 °C 30.3 °F /  -0.9 °C 29.89 in /  1012.1 hPa WNW 0.7 mph /  1.1 km/h 4.6 mph /  7.4 km/h 51 % 0.00 in /  0 mm
11:35 47.9 °F /  8.8 °C 30.6 °F /  -0.8 °C 29.89 in /  1012.1 hPa NNW 2.3 mph /  3.7 km/h 3.5 mph /  5.6 km/h 51 % 0.00 in /  0 mm
11:40 48.2 °F /  9 °C 30.4 °F /  -0.9 °C 29.89 in /  1012.1 hPa NW 2.0 mph /  3.2 km/h 3.5 mph /  5.6 km/h 50 % 0.00 in /  0 mm
11:45 48.3 °F /  9.1 °C 30.0 °F /  -1.1 °C 29.89 in /  1012.1 hPa NW 4.2 mph /  6.8 km/h 5.8 mph /  9.3 km/h 49 % 0.00 in /  0 mm
11:50 48.3 °F /  9.1 °C 29.5 °F /  -1.4 °C 29.89 in /  1012.1 hPa NW 2.3 mph /  3.7 km/h 5.8 mph /  9.3 km/h 48 % 0.00 in /  0 mm
11:55 48.3 °F /  9.1 °C 29.5 °F /  -1.4 °C 29.89 in /  1012.1 hPa NW 2.9 mph /  4.7 km/h 5.0 mph /  8 km/h 48 % 0.00 in /  0 mm
12:00 48.1 °F /  8.9 °C 29.8 °F /  -1.2 °C 29.89 in /  1012.1 hPa NW 2.1 mph /  3.4 km/h 3.5 mph /  5.6 km/h 49 % 0.00 in /  0 mm
12:05 48.2 °F /  9 °C 29.9 °F /  -1.2 °C 29.89 in /  1012.1 hPa NW 1.4 mph /  2.3 km/h 2.3 mph /  3.7 km/h 49 % 0.00 in /  0 mm
12:10 48.5 °F /  9.2 °C 30.7 °F /  -0.7 °C 29.89 in /  1012.1 hPa West 1.4 mph /  2.3 km/h 4.0 mph /  6.4 km/h 50 % 0.00 in /  0 mm
12:15 48.8 °F /  9.3 °C 28.4 °F /  -2 °C 29.89 in /  1012.1 hPa SW 2.7 mph /  4.3 km/h 5.8 mph /  9.3 km/h 45 % 0.00 in /  0 mm
12:20 49.0 °F /  9.4 °C 28.6 °F /  -1.9 °C 29.89 in /  1012.1 hPa WNW 1.7 mph /  2.7 km/h 3.5 mph /  5.6 km/h 45 % 0.00 in /  0 mm
12:25 49.4 °F /  9.7 °C 29.5 °F /  -1.4 °C 29.88 in /  1011.7 hPa WNW 2.7 mph /  4.3 km/h 4.6 mph /  7.4 km/h 46 % 0.00 in /  0 mm
12:30 49.8 °F /  9.9 °C 28.2 °F /  -2.1 °C 29.88 in /  1011.7 hPa SSW 1.2 mph /  1.9 km/h 3.5 mph /  5.6 km/h 43 % 0.00 in /  0 mm
12:35 50.2 °F /  10.1 °C 29.7 °F /  -1.3 °C 29.88 in /  1011.7 hPa WNW 1.9 mph /  3.1 km/h 2.3 mph /  3.7 km/h 45 % 0.00 in /  0 mm
12:37 50.3 °F /  10.2 °C 28.6 °F /  -1.9 °C 29.88 in /  1011.7 hPa NW 2.9 mph /  4.7 km/h 5.8 mph /  9.3 km/h 43 % 0.00 in /  0 mm
12:42 50.9 °F /  10.5 °C 31.9 °F /  -0.1 °C 29.88 in /  1011.7 hPa NW 0.1 mph /  0.2 km/h 1.2 mph /  1.9 km/h 48 % 0.00 in /  0 mm
12:47 51.3 °F /  10.7 °C 30.1 °F /  -1.1 °C 29.87 in /  1011.4 hPa NNW 2.0 mph /  3.2 km/h 4.6 mph /  7.4 km/h 44 % 0.00 in /  0 mm
12:52 51.5 °F /  10.8 °C 30.3 °F /  -0.9 °C 29.87 in /  1011.4 hPa North 2.7 mph /  4.3 km/h 5.8 mph /  9.3 km/h 44 % 0.00 in /  0 mm
12:57 52.0 °F /  11.1 °C 30.7 °F /  -0.7 °C 29.87 in /  1011.4 hPa NNW 2.0 mph /  3.2 km/h 4.0 mph /  6.4 km/h 44 % 0.00 in /  0 mm
13:02 52.3 °F /  11.3 °C 31.0 °F /  -0.6 °C 29.87 in /  1011.4 hPa NNW 1.9 mph /  3.1 km/h 4.6 mph /  7.4 km/h 44 % 0.00 in /  0 mm
13:07 52.8 °F /  11.6 °C 33.6 °F /  0.9 °C 29.87 in /  1011.4 hPa NNW 2.4 mph /  3.9 km/h 4.0 mph /  6.4 km/h 48 % 0.00 in /  0 mm
13:12 53.4 °F /  11.9 °C 32.6 °F /  0.3 °C 29.87 in /  1011.4 hPa NW 2.5 mph /  4 km/h 3.5 mph /  5.6 km/h 45 % 0.00 in /  0 mm
13:17 54.0 °F /  12.2 °C 33.7 °F /  0.9 °C 29.86 in /  1011.1 hPa North 2.0 mph /  3.2 km/h 3.5 mph /  5.6 km/h 46 % 0.00 in /  0 mm
13:22 54.4 °F /  12.4 °C 33.5 °F /  0.8 °C 29.86 in /  1011.1 hPa WNW 3.7 mph /  6 km/h 4.6 mph /  7.4 km/h 45 % 0.00 in /  0 mm
13:27 54.5 °F /  12.5 °C 33.0 °F /  0.6 °C 29.86 in /  1011.1 hPa North 3.9 mph /  6.3 km/h 5.0 mph /  8 km/h 44 % 0.00 in /  0 mm
13:32 54.8 °F /  12.7 °C 33.8 °F /  1 °C 29.86 in /  1011.1 hPa NNW 3.6 mph /  5.8 km/h 5.0 mph /  8 km/h 45 % 0.00 in /  0 mm
13:37 55.2 °F /  12.9 °C 33.1 °F /  0.6 °C 29.86 in /  1011.1 hPa NNW 2.6 mph /  4.2 km/h 3.5 mph /  5.6 km/h 43 % 0.00 in /  0 mm
13:42 55.5 °F /  13.1 °C 35.0 °F /  1.7 °C 29.86 in /  1011.1 hPa North 3.1 mph /  5 km/h 6.9 mph /  11.1 km/h 46 % 0.00 in /  0 mm
13:47 55.7 °F /  13.2 °C 34.1 °F /  1.2 °C 29.85 in /  1010.7 hPa NNW 2.9 mph /  4.7 km/h 4.0 mph /  6.4 km/h 44 % 0.00 in /  0 mm
13:52 55.7 °F /  13.2 °C 34.1 °F /  1.2 °C 29.85 in /  1010.7 hPa NNW 2.3 mph /  3.7 km/h 5.8 mph /  9.3 km/h 44 % 0.00 in /  0 mm
13:58 55.5 °F /  13.1 °C 33.3 °F /  0.7 °C 29.84 in /  1010.4 hPa WNW 2.2 mph /  3.5 km/h 6.9 mph /  11.1 km/h 43 % 0.00 in /  0 mm
14:03 55.6 °F /  13.1 °C 32.8 °F /  0.4 °C 29.84 in /  1010.4 hPa WNW 5.0 mph /  8 km/h 7.0 mph /  11.3 km/h 42 % 0.00 in /  0 mm
14:08 55.8 °F /  13.2 °C 33.6 °F /  0.9 °C 29.84 in /  1010.4 hPa NW 3.0 mph /  4.8 km/h 8.0 mph /  12.9 km/h 43 % 0.00 in /  0 mm
14:13 55.8 °F /  13.2 °C 33.0 °F /  0.6 °C 29.84 in /  1010.4 hPa WNW 3.0 mph /  4.8 km/h 8.0 mph /  12.9 km/h 42 % 0.00 in /  0 mm
14:18 55.9 °F /  13.3 °C 32.5 °F /  0.3 °C 29.84 in /  1010.4 hPa WNW 5.0 mph /  8 km/h 8.0 mph /  12.9 km/h 41 % 0.00 in /  0 mm
14:23 55.8 °F /  13.2 °C 31.8 °F /  -0.1 °C 29.84 in /  1010.4 hPa WNW 5.0 mph /  8 km/h 10.0 mph /  16.1 km/h 40 % 0.00 in /  0 mm
14:28 55.6 °F /  13.1 °C 31.0 °F /  -0.6 °C 29.84 in /  1010.4 hPa WNW 3.0 mph /  4.8 km/h 8.0 mph /  12.9 km/h 39 % 0.00 in /  0 mm
14:33 55.5 °F /  13.1 °C 31.5 °F /  -0.3 °C 29.84 in /  1010.4 hPa WNW 4.9 mph /  7.9 km/h 6.0 mph /  9.7 km/h 40 % 0.00 in /  0 mm
14:38 55.7 °F /  13.2 °C 31.7 °F /  -0.2 °C 29.83 in /  1010 hPa WNW 4.8 mph /  7.7 km/h 9.2 mph /  14.8 km/h 40 % 0.00 in /  0 mm
14:43 55.9 °F /  13.3 °C 31.9 °F /  -0.1 °C 29.83 in /  1010 hPa West 3.0 mph /  4.8 km/h 10.0 mph /  16.1 km/h 40 % 0.00 in /  0 mm
14:48 55.7 °F /  13.2 °C 31.1 °F /  -0.5 °C 29.83 in /  1010 hPa West 5.0 mph /  8 km/h 12.0 mph /  19.3 km/h 39 % 0.00 in /  0 mm
14:53 55.8 °F /  13.2 °C 31.2 °F /  -0.4 °C 29.83 in /  1010 hPa West 3.0 mph /  4.8 km/h 8.0 mph /  12.9 km/h 39 % 0.00 in /  0 mm
14:58 55.8 °F /  13.2 °C 31.8 °F /  -0.1 °C 29.83 in /  1010 hPa West 3.7 mph /  6 km/h 6.9 mph /  11.1 km/h 40 % 0.00 in /  0 mm
15:03 55.8 °F /  13.2 °C 31.2 °F /  -0.4 °C 29.83 in /  1010 hPa WNW 1.8 mph /  2.9 km/h 6.9 mph /  11.1 km/h 39 % 0.00 in /  0 mm
15:08 55.9 °F /  13.3 °C 32.5 °F /  0.3 °C 29.82 in /  1009.7 hPa WSW 5.5 mph /  8.9 km/h 7.0 mph /  11.3 km/h 41 % 0.00 in /  0 mm
15:13 56.0 °F /  13.3 °C 33.2 °F /  0.7 °C 29.82 in /  1009.7 hPa SW 3.1 mph /  5 km/h 8.1 mph /  13 km/h 42 % 0.00 in /  0 mm
15:18 56.2 °F /  13.4 °C 32.2 °F /  0.1 °C 29.82 in /  1009.7 hPa West 5.8 mph /  9.3 km/h 10.4 mph /  16.7 km/h 40 % 0.00 in /  0 mm
15:23 56.2 °F /  13.4 °C 32.2 °F /  0.1 °C 29.82 in /  1009.7 hPa SW 5.2 mph /  8.4 km/h 8.1 mph /  13 km/h 40 % 0.00 in /  0 mm
15:28 56.1 °F /  13.4 °C 32.1 °F /  0.1 °C 29.82 in /  1009.7 hPa SW 4.2 mph /  6.8 km/h 8.1 mph /  13 km/h 40 % 0.00 in /  0 mm
15:33 56.2 °F /  13.4 °C 32.2 °F /  0.1 °C 29.81 in /  1009.4 hPa WSW 6.2 mph /  10 km/h 10.4 mph /  16.7 km/h 40 % 0.00 in /  0 mm
15:40 56.0 °F /  13.3 °C 32.0 °F /  0 °C 29.81 in /  1009.4 hPa WSW 6.6 mph /  10.6 km/h 10.4 mph /  16.7 km/h 40 % 0.00 in /  0 mm
15:45 56.1 °F /  13.4 °C 32.7 °F /  0.4 °C 29.81 in /  1009.4 hPa SW 4.2 mph /  6.8 km/h 5.8 mph /  9.3 km/h 41 % 0.00 in /  0 mm
15:50 56.2 °F /  13.4 °C 32.8 °F /  0.4 °C 29.81 in /  1009.4 hPa West 5.1 mph /  8.2 km/h 5.8 mph /  9.3 km/h 41 % 0.00 in /  0 mm
15:51 56.2 °F /  13.4 °C 32.8 °F /  0.4 °C 29.81 in /  1009.4 hPa WNW 5.3 mph /  8.5 km/h 5.8 mph /  9.3 km/h 41 % 0.00 in /  0 mm
15:56 56.4 °F /  13.6 °C 32.4 °F /  0.2 °C 29.81 in /  1009.4 hPa WNW 2.2 mph /  3.5 km/h 4.6 mph /  7.4 km/h 40 % 0.00 in /  0 mm
16:01 56.5 °F /  13.6 °C 32.4 °F /  0.2 °C 29.81 in /  1009.4 hPa West 3.2 mph /  5.1 km/h 9.2 mph /  14.8 km/h 40 % 0.00 in /  0 mm
16:06 56.5 °F /  13.6 °C 33.1 °F /  0.6 °C 29.80 in /  1009 hPa WSW 4.4 mph /  7.1 km/h 8.1 mph /  13 km/h 41 % 0.00 in /  0 mm
16:11 56.7 °F /  13.7 °C 33.2 °F /  0.7 °C 29.80 in /  1009 hPa WSW 4.3 mph /  6.9 km/h 6.9 mph /  11.1 km/h 41 % 0.00 in /  0 mm
16:16 56.5 °F /  13.6 °C 32.4 °F /  0.2 °C 29.80 in /  1009 hPa West 3.7 mph /  6 km/h 10.0 mph /  16.1 km/h 40 % 0.00 in /  0 mm
16:21 56.7 °F /  13.7 °C 32.6 °F /  0.3 °C 29.80 in /  1009 hPa SSW 2.2 mph /  3.5 km/h 5.8 mph /  9.3 km/h 40 % 0.00 in /  0 mm
16:27 56.7 °F /  13.7 °C 32.6 °F /  0.3 °C 29.80 in /  1009 hPa SW 2.5 mph /  4 km/h 10.4 mph /  16.7 km/h 40 % 0.00 in /  0 mm
16:32 56.9 °F /  13.8 °C 33.4 °F /  0.8 °C 29.80 in /  1009 hPa West 4.0 mph /  6.4 km/h 7.0 mph /  11.3 km/h 41 % 0.00 in /  0 mm
16:37 57.0 °F /  13.9 °C 32.9 °F /  0.5 °C 29.79 in /  1008.7 hPa WSW 4.0 mph /  6.4 km/h 6.0 mph /  9.7 km/h 40 % 0.00 in /  0 mm
16:42 57.3 °F /  14.1 °C 33.2 °F /  0.7 °C 29.79 in /  1008.7 hPa WNW 5.6 mph /  9 km/h 8.0 mph /  12.9 km/h 40 % 0.00 in /  0 mm
16:47 57.5 °F /  14.2 °C 33.3 °F /  0.7 °C 29.78 in /  1008.4 hPa West 4.3 mph /  6.9 km/h 6.9 mph /  11.1 km/h 40 % 0.00 in /  0 mm
16:52 57.5 °F /  14.2 °C 33.3 °F /  0.7 °C 29.78 in /  1008.4 hPa WSW 3.4 mph /  5.5 km/h 7.0 mph /  11.3 km/h 40 % 0.00 in /  0 mm
16:57 57.3 °F /  14.1 °C 33.2 °F /  0.7 °C 29.78 in /  1008.4 hPa WSW 5.1 mph /  8.2 km/h 7.0 mph /  11.3 km/h 40 % 0.00 in /  0 mm
17:02 56.9 °F /  13.8 °C 32.8 °F /  0.4 °C 29.78 in /  1008.4 hPa WSW 5.0 mph /  8 km/h 6.9 mph /  11.1 km/h 40 % 0.00 in /  0 mm
17:07 56.7 °F /  13.7 °C 33.2 °F /  0.7 °C 29.78 in /  1008.4 hPa SW 1.3 mph /  2.1 km/h 4.6 mph /  7.4 km/h 41 % 0.00 in /  0 mm
17:12 56.6 °F /  13.7 °C 33.2 °F /  0.7 °C 29.78 in /  1008.4 hPa West 5.4 mph /  8.7 km/h 8.1 mph /  13 km/h 41 % 0.00 in /  0 mm
17:17 56.4 °F /  13.6 °C 33.6 °F /  0.9 °C 29.78 in /  1008.4 hPa WSW 5.3 mph /  8.5 km/h 6.9 mph /  11.1 km/h 42 % 0.00 in /  0 mm
17:22 56.3 °F /  13.5 °C 33.5 °F /  0.8 °C 29.78 in /  1008.4 hPa West 4.7 mph /  7.6 km/h 5.8 mph /  9.3 km/h 42 % 0.00 in /  0 mm
17:27 56.2 °F /  13.4 °C 33.4 °F /  0.8 °C 29.77 in /  1008 hPa WSW 4.3 mph /  6.9 km/h 5.8 mph /  9.3 km/h 42 % 0.00 in /  0 mm
17:32 56.2 °F /  13.4 °C 33.4 °F /  0.8 °C 29.78 in /  1008.4 hPa WSW 4.8 mph /  7.7 km/h 6.0 mph /  9.7 km/h 42 % 0.00 in /  0 mm
17:37 56.2 °F /  13.4 °C 34.0 °F /  1.1 °C 29.78 in /  1008.4 hPa West 2.1 mph /  3.4 km/h 3.5 mph /  5.6 km/h 43 % 0.00 in /  0 mm
17:47 56.1 °F /  13.4 °C 33.9 °F /  1.1 °C 29.78 in /  1008.4 hPa WSW 4.3 mph /  6.9 km/h 5.0 mph /  8 km/h 43 % 0.00 in /  0 mm
17:52 56.0 °F /  13.3 °C 34.4 °F /  1.3 °C 29.78 in /  1008.4 hPa SSW 2.0 mph /  3.2 km/h 3.5 mph /  5.6 km/h 44 % 0.00 in /  0 mm
17:57 56.0 °F /  13.3 °C 34.4 °F /  1.3 °C 29.78 in /  1008.4 hPa SSW 1.9 mph /  3.1 km/h 3.0 mph /  4.8 km/h 44 % 0.00 in /  0 mm
18:02 56.0 °F /  13.3 °C 34.4 °F /  1.3 °C 29.78 in /  1008.4 hPa West 1.9 mph /  3.1 km/h 3.5 mph /  5.6 km/h 44 % 0.00 in /  0 mm
18:07 56.0 °F /  13.3 °C 34.4 °F /  1.3 °C 29.78 in /  1008.4 hPa WSW 1.7 mph /  2.7 km/h 3.5 mph /  5.6 km/h 44 % 0.00 in /  0 mm
18:12 56.0 °F /  13.3 °C 34.4 °F /  1.3 °C 29.78 in /  1008.4 hPa WSW 0.8 mph /  1.3 km/h 2.0 mph /  3.2 km/h 44 % 0.00 in /  0 mm
18:17 56.0 °F /  13.3 °C 34.9 °F /  1.6 °C 29.78 in /  1008.4 hPa WSW 1.5 mph /  2.4 km/h 3.5 mph /  5.6 km/h 45 % 0.00 in /  0 mm
18:22 55.9 °F /  13.3 °C 34.8 °F /  1.6 °C 29.78 in /  1008.4 hPa WSW 0.4 mph /  0.6 km/h 2.3 mph /  3.7 km/h 45 % 0.00 in /  0 mm
18:27 55.9 °F /  13.3 °C 34.3 °F /  1.3 °C 29.78 in /  1008.4 hPa SW 1.8 mph /  2.9 km/h 3.5 mph /  5.6 km/h 44 % 0.00 in /  0 mm
18:32 55.8 °F /  13.2 °C 34.8 °F /  1.6 °C 29.78 in /  1008.4 hPa WSW 0.6 mph /  1 km/h 2.3 mph /  3.7 km/h 45 % 0.00 in /  0 mm
18:37 55.7 °F /  13.2 °C 34.7 °F /  1.5 °C 29.78 in /  1008.4 hPa SW 0.5 mph /  0.8 km/h 1.2 mph /  1.9 km/h 45 % 0.00 in /  0 mm
18:42 55.5 °F /  13.1 °C 35.0 °F /  1.7 °C 29.79 in /  1008.7 hPa SSW 4.6 mph /  7.4 km/h 5.8 mph /  9.3 km/h 46 % 0.00 in /  0 mm
18:47 55.1 °F /  12.8 °C 35.2 °F /  1.8 °C 29.78 in /  1008.4 hPa South 1.7 mph /  2.7 km/h 2.3 mph /  3.7 km/h 47 % 0.00 in /  0 mm
18:52 54.9 °F /  12.7 °C 35.6 °F /  2 °C 29.79 in /  1008.7 hPa WSW 3.1 mph /  5 km/h 7.0 mph /  11.3 km/h 48 % 0.00 in /  0 mm
18:57 54.6 °F /  12.6 °C 35.8 °F /  2.1 °C 29.79 in /  1008.7 hPa SSW 3.3 mph /  5.3 km/h 6.0 mph /  9.7 km/h 49 % 0.00 in /  0 mm
19:02 54.3 °F /  12.4 °C 35.5 °F /  1.9 °C 29.79 in /  1008.7 hPa SW 1.1 mph /  1.8 km/h 8.1 mph /  13 km/h 49 % 0.00 in /  0 mm
19:07 54.1 °F /  12.3 °C 35.9 °F /  2.2 °C 29.79 in /  1008.7 hPa SSW 3.1 mph /  5 km/h 4.6 mph /  7.4 km/h 50 % 0.00 in /  0 mm
19:12 53.8 °F /  12.1 °C 35.6 °F /  2 °C 29.79 in /  1008.7 hPa SW 0.4 mph /  0.6 km/h 5.8 mph /  9.3 km/h 50 % 0.00 in /  0 mm
19:17 53.6 °F /  12 °C 35.4 °F /  1.9 °C 29.79 in /  1008.7 hPa SW 2.8 mph /  4.5 km/h 3.5 mph /  5.6 km/h 50 % 0.00 in /  0 mm
19:23 53.4 °F /  11.9 °C 35.7 °F /  2.1 °C 29.80 in /  1009 hPa SSW 2.7 mph /  4.3 km/h 4.6 mph /  7.4 km/h 51 % 0.00 in /  0 mm
19:27 53.2 °F /  11.8 °C 35.5 °F /  1.9 °C 29.79 in /  1008.7 hPa SSW 1.2 mph /  1.9 km/h 3.5 mph /  5.6 km/h 51 % 0.00 in /  0 mm
19:32 52.9 °F /  11.6 °C 35.7 °F /  2.1 °C 29.79 in /  1008.7 hPa SSW 1.6 mph /  2.6 km/h 4.0 mph /  6.4 km/h 52 % 0.00 in /  0 mm
19:38 52.7 °F /  11.5 °C 35.6 °F /  2 °C 29.79 in /  1008.7 hPa SW 1.0 mph /  1.6 km/h 3.0 mph /  4.8 km/h 52 % 0.00 in /  0 mm
19:43 52.4 °F /  11.3 °C 35.8 °F /  2.1 °C 29.80 in /  1009 hPa SW 3.0 mph /  4.8 km/h 9.0 mph /  14.5 km/h 53 % 0.00 in /  0 mm
19:48 52.0 °F /  11.1 °C 35.9 °F /  2.2 °C 29.80 in /  1009 hPa SW 4.0 mph /  6.4 km/h 4.0 mph /  6.4 km/h 54 % 0.00 in /  0 mm
19:53 51.7 °F /  10.9 °C 36.0 °F /  2.2 °C 29.80 in /  1009 hPa SW 3.0 mph /  4.8 km/h 7.0 mph /  11.3 km/h 55 % 0.00 in /  0 mm
19:58 51.3 °F /  10.7 °C 36.1 °F /  2.3 °C 29.80 in /  1009 hPa SW 2.3 mph /  3.7 km/h 5.8 mph /  9.3 km/h 56 % 0.00 in /  0 mm
20:03 51.2 °F /  10.7 °C 36.0 °F /  2.2 °C 29.81 in /  1009.4 hPa WSW 1.5 mph /  2.4 km/h 5.8 mph /  9.3 km/h 56 % 0.00 in /  0 mm
20:08 51.0 °F /  10.6 °C 35.8 °F /  2.1 °C 29.81 in /  1009.4 hPa SW 2.2 mph /  3.5 km/h 6.0 mph /  9.7 km/h 56 % 0.00 in /  0 mm
20:13 50.8 °F /  10.4 °C 36.1 °F /  2.3 °C 29.81 in /  1009.4 hPa SW 2.3 mph /  3.7 km/h 4.0 mph /  6.4 km/h 57 % 0.00 in /  0 mm
20:18 50.5 °F /  10.3 °C 36.3 °F /  2.4 °C 29.82 in /  1009.7 hPa SW 1.1 mph /  1.8 km/h 3.5 mph /  5.6 km/h 58 % 0.00 in /  0 mm
20:23 50.3 °F /  10.2 °C 36.1 °F /  2.3 °C 29.82 in /  1009.7 hPa WSW 2.0 mph /  3.2 km/h 3.5 mph /  5.6 km/h 58 % 0.00 in /  0 mm
20:28 50.1 °F /  10.1 °C 35.9 °F /  2.2 °C 29.82 in /  1009.7 hPa SW 2.1 mph /  3.4 km/h 5.0 mph /  8 km/h 58 % 0.00 in /  0 mm
20:33 49.9 °F /  9.9 °C 35.7 °F /  2.1 °C 29.82 in /  1009.7 hPa SW 1.6 mph /  2.6 km/h 3.0 mph /  4.8 km/h 58 % 0.00 in /  0 mm
20:38 49.8 °F /  9.9 °C 36.0 °F /  2.2 °C 29.82 in /  1009.7 hPa SW 2.6 mph /  4.2 km/h 3.5 mph /  5.6 km/h 59 % 0.00 in /  0 mm
20:43 49.6 °F /  9.8 °C 35.8 °F /  2.1 °C 29.83 in /  1010 hPa SSW 1.5 mph /  2.4 km/h 4.6 mph /  7.4 km/h 59 % 0.00 in /  0 mm
20:48 49.4 °F /  9.7 °C 35.7 °F /  2.1 °C 29.82 in /  1009.7 hPa SSW 0.3 mph /  0.5 km/h 3.5 mph /  5.6 km/h 59 % 0.00 in /  0 mm
20:53 49.3 °F /  9.6 °C 35.6 °F /  2 °C 29.83 in /  1010 hPa SSW 1.2 mph /  1.9 km/h 2.3 mph /  3.7 km/h 59 % 0.00 in /  0 mm
20:58 49.1 °F /  9.5 °C 35.8 °F /  2.1 °C 29.82 in /  1009.7 hPa SSW 0.8 mph /  1.3 km/h 2.3 mph /  3.7 km/h 60 % 0.00 in /  0 mm
21:03 49.0 °F /  9.4 °C 35.7 °F /  2.1 °C 29.82 in /  1009.7 hPa Calm     60 % 0.00 in /  0 mm
21:08 48.8 °F /  9.3 °C 35.5 °F /  1.9 °C 29.82 in /  1009.7 hPa SSW 0.4 mph /  0.6 km/h 2.3 mph /  3.7 km/h 60 % 0.00 in /  0 mm
21:13 48.6 °F /  9.2 °C 35.3 °F /  1.8 °C 29.83 in /  1010 hPa SSW 0.4 mph /  0.6 km/h 2.0 mph /  3.2 km/h 60 % 0.00 in /  0 mm
21:19 48.4 °F /  9.1 °C 35.6 °F /  2 °C 29.83 in /  1010 hPa SSW 1.3 mph /  2.1 km/h 3.5 mph /  5.6 km/h 61 % 0.00 in /  0 mm
21:24 48.2 °F /  9 °C 35.4 °F /  1.9 °C 29.82 in /  1009.7 hPa SSW 1.3 mph /  2.1 km/h 3.5 mph /  5.6 km/h 61 % 0.00 in /  0 mm
21:29 48.1 °F /  8.9 °C 35.7 °F /  2.1 °C 29.83 in /  1010 hPa SSW 1.5 mph /  2.4 km/h 3.0 mph /  4.8 km/h 62 % 0.00 in /  0 mm
21:34 47.9 °F /  8.8 °C 35.5 °F /  1.9 °C 29.83 in /  1010 hPa SSW 1.2 mph /  1.9 km/h 2.3 mph /  3.7 km/h 62 % 0.00 in /  0 mm
21:39 47.7 °F /  8.7 °C 35.3 °F /  1.8 °C 29.83 in /  1010 hPa SSW 0.5 mph /  0.8 km/h 1.2 mph /  1.9 km/h 62 % 0.00 in /  0 mm
21:44 47.5 °F /  8.6 °C 35.5 °F /  1.9 °C 29.83 in /  1010 hPa SSW 1.1 mph /  1.8 km/h 2.3 mph /  3.7 km/h 63 % 0.00 in /  0 mm
21:49 47.3 °F /  8.5 °C 35.3 °F /  1.8 °C 29.83 in /  1010 hPa SSW 1.6 mph /  2.6 km/h 2.3 mph /  3.7 km/h 63 % 0.00 in /  0 mm
21:54 47.0 °F /  8.3 °C 35.0 °F /  1.7 °C 29.83 in /  1010 hPa SSW 1.0 mph /  1.6 km/h 2.3 mph /  3.7 km/h 63 % 0.00 in /  0 mm
21:59 46.8 °F /  8.2 °C 35.3 °F /  1.8 °C 29.83 in /  1010 hPa SSW 1.4 mph /  2.3 km/h 3.5 mph /  5.6 km/h 64 % 0.00 in /  0 mm
22:04 46.6 °F /  8.1 °C 35.1 °F /  1.7 °C 29.83 in /  1010 hPa SSW 1.8 mph /  2.9 km/h 3.0 mph /  4.8 km/h 64 % 0.00 in /  0 mm
22:09 46.4 °F /  8 °C 34.9 °F /  1.6 °C 29.83 in /  1010 hPa Calm   2.3 mph /  3.7 km/h 64 % 0.00 in /  0 mm
22:14 46.3 °F /  7.9 °C 35.2 °F /  1.8 °C 29.83 in /  1010 hPa SSW 2.3 mph /  3.7 km/h 3.5 mph /  5.6 km/h 65 % 0.00 in /  0 mm
22:19 46.2 °F /  7.9 °C 35.1 °F /  1.7 °C 29.83 in /  1010 hPa SSW 1.6 mph /  2.6 km/h 3.5 mph /  5.6 km/h 65 % 0.00 in /  0 mm
22:24 46.1 °F /  7.8 °C 35.0 °F /  1.7 °C 29.83 in /  1010 hPa SSW 1.5 mph /  2.4 km/h 2.3 mph /  3.7 km/h 65 % 0.00 in /  0 mm
22:29 46.1 °F /  7.8 °C 35.0 °F /  1.7 °C 29.83 in /  1010 hPa SSW 0.4 mph /  0.6 km/h 2.3 mph /  3.7 km/h 65 % 0.00 in /  0 mm
22:34 46.2 °F /  7.9 °C 33.5 °F /  0.8 °C 29.83 in /  1010 hPa WNW 2.1 mph /  3.4 km/h 3.5 mph /  5.6 km/h 61 % 0.00 in /  0 mm
22:39 46.4 °F /  8 °C 33.7 °F /  0.9 °C 29.83 in /  1010 hPa WNW 0.3 mph /  0.5 km/h 2.0 mph /  3.2 km/h 61 % 0.00 in /  0 mm
22:44 46.4 °F /  8 °C 33.3 °F /  0.7 °C 29.83 in /  1010 hPa WNW 0.4 mph /  0.6 km/h 1.2 mph /  1.9 km/h 60 % 0.00 in /  0 mm
22:49 46.5 °F /  8.1 °C 33.4 °F /  0.8 °C 29.83 in /  1010 hPa WNW 0.2 mph /  0.3 km/h 3.5 mph /  5.6 km/h 60 % 0.00 in /  0 mm
22:55 46.7 °F /  8.2 °C 33.1 °F /  0.6 °C 29.83 in /  1010 hPa WNW 1.2 mph /  1.9 km/h 2.0 mph /  3.2 km/h 59 % 0.00 in /  0 mm
23:00 46.8 °F /  8.2 °C 33.2 °F /  0.7 °C 29.83 in /  1010 hPa WNW 0.1 mph /  0.2 km/h 1.2 mph /  1.9 km/h 59 % 0.00 in /  0 mm
23:05 46.8 °F /  8.2 °C 32.8 °F /  0.4 °C 29.83 in /  1010 hPa WNW 0.1 mph /  0.2 km/h 1.2 mph /  1.9 km/h 58 % 0.00 in /  0 mm
23:10 46.8 °F /  8.2 °C 32.8 °F /  0.4 °C 29.83 in /  1010 hPa Calm     58 % 0.00 in /  0 mm
23:15 46.8 °F /  8.2 °C 32.8 °F /  0.4 °C 29.83 in /  1010 hPa Calm     58 % 0.00 in /  0 mm
23:20 46.8 °F /  8.2 °C 32.8 °F /  0.4 °C 29.83 in /  1010 hPa WNW 0.4 mph /  0.6 km/h 1.2 mph /  1.9 km/h 58 % 0.00 in /  0 mm
23:25 46.6 °F /  8.1 °C 32.6 °F /  0.3 °C 29.83 in /  1010 hPa Calm     58 % 0.00 in /  0 mm
23:30 46.5 °F /  8.1 °C 32.9 °F /  0.5 °C 29.83 in /  1010 hPa Calm     59 % 0.00 in /  0 mm
23:35 46.4 °F /  8 °C 32.8 °F /  0.4 °C 29.83 in /  1010 hPa Calm     59 % 0.00 in /  0 mm
23:40 46.2 °F /  7.9 °C 33.5 °F /  0.8 °C 29.83 in /  1010 hPa Calm     61 % 0.00 in /  0 mm
23:45 46.0 °F /  7.8 °C 33.7 °F /  0.9 °C 29.83 in /  1010 hPa Calm     62 % 0.00 in /  0 mm
23:50 45.8 °F /  7.7 °C 33.5 °F /  0.8 °C 29.83 in /  1010 hPa Calm     62 % 0.00 in /  0 mm
23:56 45.5 °F /  7.5 °C 32.8 °F /  0.4 °C 29.83 in /  1010 hPa Calm     61 % 0.00 in /  0 mm
Crab Meadow Weather
Compliments of Weather Underground - 3 mb

Script developed by  Jim McMurry - jmcmurry@mwt.net Adapted for the template by  Wim van der Kuil - Leuven-Template.eu

Cloud Base: The cloud base is the distance from the sea level to the base of the clouds. It is estimated using the current temperature and humidity to indicate an altitude where the air could be cold enough for clouds to form. There may or may not be clouds at that altitude (or at any altitude)